Time;durP1;ratioP1;P1;durP2;ratioP2;P2;SDS_P1;SDS_P2;PMS_P1;PMS_P2;Temp;Humidity;BMP_temperature;BMP_pressure;BME280_temperature;BME280_humidity;BME280_pressure;Samples;Min_cycle;Max_cycle;Signal;HPM_P1;HPM_P2
2022/12/13 00:02:17;;;;;;;14.93;9.27;;;;;;;1.19;100.00;100123.63;5042521;28;20057;-75
2022/12/13 00:04:42;;;;;;;16.85;8.50;;;;;;;1.05;100.00;100148.13;5046788;28;20053;-74
2022/12/13 00:07:07;;;;;;;17.02;9.60;;;;;;;1.40;100.00;100161.34;5040532;28;20489;-73
2022/12/13 00:09:33;;;;;;;15.85;8.10;;;;;;;1.50;100.00;100162.50;5046510;28;20020;-74
2022/12/13 00:11:58;;;;;;;14.43;8.65;;;;;;;1.01;100.00;100157.47;5043378;28;20053;-73
2022/12/13 00:14:24;;;;;;;16.00;7.07;;;;;;;0.61;100.00;100047.66;5044667;28;20455;-72
2022/12/13 00:16:49;;;;;;;14.68;8.25;;;;;;;0.82;100.00;100072.47;5041200;28;20052;-73
2022/12/13 00:19:16;;;;;;;13.75;7.70;;;;;;;0.40;100.00;100037.47;5017789;28;20065;-74
2022/12/13 00:21:41;;;;;;;13.02;9.23;;;;;;;1.08;100.00;100139.59;5038971;28;20058;-76
2022/12/13 00:24:07;;;;;;;14.02;8.20;;;;;;;0.54;100.00;100040.53;5042861;28;20072;-73
2022/12/13 00:26:34;;;;;;;12.02;7.78;;;;;;;0.86;100.00;100073.44;5037556;28;20479;-75
2022/12/13 00:29:02;;;;;;;12.95;7.68;;;;;;;0.59;100.00;100036.41;5042436;28;20057;-75
2022/12/13 00:31:30;;;;;;;14.23;9.15;;;;;;;1.43;100.00;100162.31;5043442;28;20124;-76
2022/12/13 00:33:56;;;;;;;17.15;7.90;;;;;;;0.47;100.00;100025.66;5043106;28;20503;-75
2022/12/13 00:36:21;;;;;;;13.35;7.63;;;;;;;1.18;100.00;100155.47;5042704;28;20048;-74
2022/12/13 00:38:59;;;;;;;15.27;10.10;;;;;;;1.34;100.00;100149.09;5046934;28;20373;-75
2022/12/13 00:41:26;;;;;;;16.27;8.30;;;;;;;0.33;100.00;100001.09;5043312;28;20087;-74
2022/12/13 00:43:52;;;;;;;15.93;9.35;;;;;;;1.20;100.00;100152.94;5039350;28;20057;-76
2022/12/13 00:46:21;;;;;;;16.25;9.15;;;;;;;0.35;100.00;100053.59;5038644;28;20045;-75
2022/12/13 00:48:52;;;;;;;12.95;8.27;;;;;;;1.05;100.00;100137.78;5044059;28;20053;-75
2022/12/13 00:51:18;;;;;;;16.58;8.55;;;;;;;0.63;100.00;100045.13;5044581;28;20040;-72
2022/12/13 00:53:44;;;;;;;13.00;9.00;;;;;;;0.31;100.00;100000.16;5043796;28;20038;-76
2022/12/13 00:56:20;;;;;;;16.40;10.30;;;;;;;-0.03;100.00;99940.53;5024609;28;20458;-76
2022/12/13 00:58:47;;;;;;;13.02;7.65;;;;;;;0.59;100.00;100069.97;5017724;28;20393;-75
2022/12/13 01:01:14;;;;;;;16.08;8.52;;;;;;;0.97;100.00;100162.50;5045287;28;20048;-73
2022/12/13 01:03:40;;;;;;;13.57;7.25;;;;;;;0.95;100.00;100167.59;5016925;28;20707;-73
2022/12/13 01:06:17;;;;;;;19.23;9.10;;;;;;;0.14;100.00;100041.72;5042086;28;20115;-75
2022/12/13 01:08:43;;;;;;;14.13;7.72;;;;;;;0.95;100.00;100156.38;5042139;28;20143;-75
2022/12/13 01:11:10;;;;;;;13.55;8.15;;;;;;;0.61;100.00;100125.13;5043250;28;20516;-75
2022/12/13 01:13:36;;;;;;;12.07;7.93;;;;;;;0.62;100.00;100121.69;5040901;28;20045;-75
2022/12/13 01:16:05;;;;;;;16.48;7.50;;;;;;;0.37;100.00;100094.13;5041220;28;20052;-75
2022/12/13 01:18:31;;;;;;;15.27;8.18;;;;;;;0.39;100.00;100174.19;5039716;28;20033;-75
2022/12/13 01:21:05;;;;;;;13.10;7.53;;;;;;;-1.67;100.00;99833.13;5038533;28;20531;-75
2022/12/13 01:23:32;;;;;;;13.00;8.10;;;;;;;-0.25;100.00;100026.56;5036439;28;20079;-76
2022/12/13 01:26:01;;;;;;;14.88;7.72;;;;;;;0.08;100.00;100066.41;5042088;28;21535;-75
2022/12/13 01:28:26;;;;;;;10.13;7.20;;;;;;;0.35;100.00;100164.56;5041151;28;20079;-75
2022/12/13 01:30:57;;;;;;;15.45;8.23;;;;;;;0.63;100.00;100169.03;5038402;28;20053;-73
2022/12/13 01:33:23;;;;;;;14.57;8.35;;;;;;;0.56;100.00;100167.97;5041424;28;20043;-76
2022/12/13 01:35:49;;;;;;;12.90;8.45;;;;;;;0.68;100.00;100175.28;5039451;28;20040;-75
2022/12/13 01:38:17;;;;;;;10.75;6.43;;;;;;;-0.23;100.00;100093.66;5038938;28;20195;-74
2022/12/13 01:40:44;;;;;;;11.23;5.70;;;;;;;0.34;100.00;100132.72;5039258;28;20048;-76
2022/12/13 01:43:15;;;;;;;13.32;9.45;;;;;;;0.22;100.00;100139.16;5039028;28;20131;-75
2022/12/13 01:45:41;;;;;;;15.00;7.40;;;;;;;-0.02;100.00;100067.78;5045504;28;20041;-73
2022/12/13 01:48:18;;;;;;;14.80;8.40;;;;;;;-0.51;100.00;100009.25;5042597;28;20037;-74
2022/12/13 01:50:48;;;;;;;13.40;7.05;;;;;;;0.23;100.00;100131.47;5040220;28;20080;-75
2022/12/13 01:53:20;;;;;;;13.32;8.23;;;;;;;-0.24;100.00;100027.44;5024325;28;20097;-74
2022/12/13 01:55:52;;;;;;;12.35;6.25;;;;;;;-0.28;100.00;100013.56;5040460;28;20049;-75
2022/12/13 01:58:18;;;;;;;15.48;7.25;;;;;;;0.12;100.00;100127.63;5044433;28;20083;-76
2022/12/13 02:00:46;;;;;;;16.15;7.18;;;;;;;-0.38;100.00;100036.34;5044304;28;20527;-76
2022/12/13 02:03:12;;;;;;;13.95;7.03;;;;;;;0.24;100.00;100130.66;5042751;28;20776;-76
2022/12/13 02:05:46;;;;;;;13.07;6.00;;;;;;;0.35;100.00;100154.25;5047150;28;20045;-76
2022/12/13 02:08:14;;;;;;;11.88;7.35;;;;;;;0.23;100.00;100165.00;5047478;28;20048;-77
2022/12/13 02:10:41;;;;;;;16.85;9.13;;;;;;;-0.67;100.00;100031.84;5046849;28;20149;-76
2022/12/13 02:13:07;;;;;;;12.63;6.50;;;;;;;-0.03;100.00;100158.84;5046582;28;20134;-76
2022/12/13 02:16:05;;;;;;;13.07;7.40;;;;;;;-0.56;100.00;100034.84;5045311;28;20078;-75
2022/12/13 02:18:42;;;;;;;10.15;6.13;;;;;;;0.34;100.00;100168.88;5042145;28;20048;-77
2022/12/13 02:21:32;;;;;;;14.60;9.15;;;;;;;-0.16;100.00;100143.75;5050812;28;20464;-75
2022/12/13 02:24:26;;;;;;;13.60;6.78;;;;;;;0.18;100.00;100169.97;5046670;28;20073;-77
2022/12/13 02:27:48;;;;;;;13.80;7.93;;;;;;;0.06;100.00;100166.06;5044853;28;20084;-77
2022/12/13 02:30:57;;;;;;;14.60;7.72;;;;;;;0.18;100.00;100169.13;4954338;28;20098;-76
2022/12/13 02:33:50;;;;;;;10.93;6.60;;;;;;;0.12;100.00;100154.28;4950615;28;20049;-75
2022/12/13 02:36:30;;;;;;;13.40;7.68;;;;;;;0.30;100.00;100174.72;5045754;28;20033;-76
2022/12/13 02:39:03;;;;;;;14.82;6.93;;;;;;;-0.35;100.00;100072.53;5044585;28;20061;-74
2022/12/13 02:41:37;;;;;;;18.70;9.27;;;;;;;0.14;100.00;100173.28;5045453;28;20051;-73
2022/12/13 02:44:17;;;;;;;15.40;7.63;;;;;;;0.29;100.00;100187.59;5042426;28;20045;-75
2022/12/13 02:46:51;;;;;;;11.60;7.43;;;;;;;-0.43;100.00;100119.50;5038145;28;20049;-73
2022/12/13 02:49:19;;;;;;;11.73;6.90;;;;;;;0.06;100.00;100168.66;5022246;28;20789;-75
2022/12/13 02:51:46;;;;;;;8.30;5.15;;;;;;;0.08;100.00;100170.47;5047524;28;20134;-75
2022/12/13 02:54:11;;;;;;;13.45;7.20;;;;;;;-0.97;100.00;100051.25;5043588;28;20129;-75
2022/12/13 02:56:37;;;;;;;13.85;7.32;;;;;;;-0.71;100.00;100047.13;5023933;28;20131;-74
2022/12/13 02:59:11;;;;;;;14.32;8.23;;;;;;;0.24;100.00;100189.13;5046740;28;20489;-74
2022/12/13 03:01:52;;;;;;;17.67;7.28;;;;;;;0.21;100.00;100210.50;5027215;28;20132;-74
2022/12/13 03:04:17;;;;;;;17.17;8.40;;;;;;;0.25;100.00;100193.44;5043715;28;20044;-76
2022/12/13 03:06:54;;;;;;;15.88;7.93;;;;;;;0.17;100.00;100201.78;5045536;28;20097;-76
2022/12/13 03:09:54;;;;;;;11.27;6.75;;;;;;;0.11;100.00;100198.06;5045368;28;20045;-76
2022/12/13 03:15:28;;;;;;;11.63;6.13;;;;;;;-0.15;100.00;100143.78;5047517;28;20450;-76
2022/12/13 03:18:14;;;;;;;12.48;6.80;;;;;;;0.26;100.00;100195.19;5044739;28;20045;-74
2022/12/13 03:20:46;;;;;;;9.63;5.90;;;;;;;-0.50;100.00;100072.84;5021163;28;20099;-76
2022/12/13 03:23:12;;;;;;;14.68;7.13;;;;;;;0.27;100.00;100196.97;5046445;28;20554;-74
2022/12/13 03:25:38;;;;;;;13.52;7.68;;;;;;;-0.50;100.00;100070.25;5040246;28;20041;-75
2022/12/13 03:28:04;;;;;;;14.38;7.22;;;;;;;0.21;100.00;100205.34;5045776;28;20098;-76
2022/12/13 03:30:33;;;;;;;14.60;8.68;;;;;;;0.35;100.00;100221.34;5046522;28;20527;-75
2022/12/13 03:32:59;;;;;;;11.05;6.72;;;;;;;0.23;100.00;100224.34;5049179;28;20045;-75
2022/12/13 03:35:25;;;;;;;14.35;7.63;;;;;;;0.01;100.00;100204.59;5027175;28;20114;-74
2022/12/13 03:37:50;;;;;;;13.65;7.40;;;;;;;0.17;100.00;100218.97;5044101;28;20056;-76
2022/12/13 03:40:18;;;;;;;11.88;6.97;;;;;;;0.36;100.00;100241.19;5040742;28;20057;-75
2022/12/13 03:42:44;;;;;;;15.98;9.57;;;;;;;-0.67;100.00;100114.28;5043427;28;20512;-74
2022/12/13 03:45:10;;;;;;;17.85;7.90;;;;;;;-0.46;100.00;100123.69;5020121;28;20053;-76
2022/12/13 03:47:35;;;;;;;16.63;7.63;;;;;;;-0.50;100.00;100096.03;5042945;28;20480;-74
2022/12/13 03:50:01;;;;;;;10.57;6.38;;;;;;;0.13;100.00;100219.66;5040954;28;20045;-74
2022/12/13 03:52:26;;;;;;;16.40;8.80;;;;;;;0.14;100.00;100237.78;5039081;28;20179;-76
2022/12/13 03:54:52;;;;;;;13.68;7.95;;;;;;;-0.04;100.00;100194.09;5043432;28;20049;-76
2022/12/13 03:57:17;;;;;;;13.60;7.65;;;;;;;-0.56;100.00;100111.25;5039905;28;20036;-76
2022/12/13 03:59:43;;;;;;;21.02;8.43;;;;;;;-0.49;100.00;100119.28;5038331;28;20025;-75
2022/12/13 04:02:08;;;;;;;14.02;7.18;;;;;;;0.22;100.00;100240.66;5041587;28;20111;-73
2022/12/13 04:04:34;;;;;;;13.70;7.95;;;;;;;0.15;100.00;100236.94;5037105;28;20045;-76
2022/12/13 04:06:59;;;;;;;15.52;7.07;;;;;;;0.22;100.00;100239.78;5043986;28;20037;-75
2022/12/13 04:09:24;;;;;;;12.93;8.88;;;;;;;-0.59;100.00;100144.63;5041388;28;20423;-74
2022/12/13 04:14:34;;;;;;;12.93;7.72;;;;;;;0.18;100.00;100249.09;5039019;28;20102;-74
2022/12/13 04:17:00;;;;;;;12.35;7.07;;;;;;;-0.25;100.00;100204.44;5042104;28;20040;-76
2022/12/13 04:19:25;;;;;;;12.68;6.75;;;;;;;-0.25;100.00;100248.25;5042550;28;20040;-73
2022/12/13 04:21:52;;;;;;;13.25;7.07;;;;;;;-1.08;100.00;100118.63;5043665;28;20075;-76
2022/12/13 04:24:19;;;;;;;22.75;8.05;;;;;;;-0.72;100.00;100118.38;5044749;28;20124;-73
2022/12/13 04:26:44;;;;;;;11.02;6.75;;;;;;;-0.14;100.00;100234.91;5041869;28;20044;-75
2022/12/13 04:29:10;;;;;;;11.38;6.88;;;;;;;-0.07;100.00;100250.72;5029743;28;20049;-76
2022/12/13 04:31:35;;;;;;;15.02;6.57;;;;;;;-0.54;100.00;100156.00;5041466;28;20056;-75
2022/12/13 04:34:00;;;;;;;15.65;7.30;;;;;;;-0.48;100.00;100153.66;5038874;28;20550;-75
2022/12/13 04:36:26;;;;;;;12.50;7.68;;;;;;;-0.58;100.00;100129.22;5041037;28;20590;-75
2022/12/13 04:38:51;;;;;;;12.02;6.70;;;;;;;-0.76;100.00;100129.38;5044334;28;20545;-76
2022/12/13 04:41:18;;;;;;;15.27;8.95;;;;;;;-0.58;100.00;100211.69;5042341;28;20485;-73
2022/12/13 04:43:44;;;;;;;13.65;6.72;;;;;;;-0.62;100.00;100157.38;5018088;28;20651;-75
2022/12/13 04:46:09;;;;;;;10.38;7.30;;;;;;;-0.12;100.00;100249.63;5039517;28;20140;-74
2022/12/13 04:48:35;;;;;;;16.25;8.32;;;;;;;-0.93;100.00;100143.25;5040020;28;20548;-76
2022/12/13 04:51:01;;;;;;;14.80;8.90;;;;;;;-0.71;100.00;100170.78;5021792;28;20041;-75
2022/12/13 04:53:28;;;;;;;11.57;5.95;;;;;;;-0.78;100.00;100153.31;5040598;28;20065;-74
2022/12/13 04:55:53;;;;;;;13.10;8.25;;;;;;;0.09;100.00;100269.38;5035460;28;20045;-75
2022/12/13 04:58:19;;;;;;;10.95;6.47;;;;;;;0.12;100.00;100266.94;5037907;28;20106;-74
2022/12/13 05:00:45;;;;;;;14.98;8.98;;;;;;;-0.07;100.00;100237.81;5041468;28;20071;-74
2022/12/13 05:03:10;;;;;;;15.35;7.00;;;;;;;-0.20;100.00;100207.19;5044496;28;20033;-76
2022/12/13 05:05:39;;;;;;;11.50;6.40;;;;;;;-0.10;100.00;100262.59;5038184;28;22536;-76
2022/12/13 05:08:06;;;;;;;10.57;6.38;;;;;;;-0.03;100.00;100274.91;5042413;28;20623;-75
2022/12/13 05:10:32;;;;;;;11.07;6.70;;;;;;;-0.15;100.00;100271.84;5038073;28;20064;-75
2022/12/13 05:12:58;;;;;;;13.90;8.05;;;;;;;-0.10;100.00;100262.59;5039758;28;20049;-75
2022/12/13 05:15:24;;;;;;;12.85;7.18;;;;;;;0.05;100.00;100286.44;5042883;28;20043;-75
2022/12/13 05:17:49;;;;;;;16.52;9.15;;;;;;;-0.88;100.00;100124.59;5048950;28;20396;-75
2022/12/13 05:20:15;;;;;;;13.82;6.35;;;;;;;-0.77;100.00;100145.66;5030160;28;20528;-75
2022/12/13 05:22:40;;;;;;;14.40;7.53;;;;;;;-0.74;100.00;100166.38;5044959;28;20494;-74
2022/12/13 05:25:06;;;;;;;29.42;8.15;;;;;;;-0.23;100.00;100293.03;5049850;28;20052;-77
2022/12/13 05:27:32;;;;;;;15.88;8.60;;;;;;;-1.00;100.00;100130.94;5048706;28;20035;-75
2022/12/13 05:29:57;;;;;;;14.93;7.13;;;;;;;-0.39;100.00;100258.84;5050090;28;20036;-75
2022/12/13 05:32:23;;;;;;;14.45;7.65;;;;;;;-0.41;100.00;100281.97;5048126;28;20052;-75
2022/12/13 05:34:49;;;;;;;13.55;6.68;;;;;;;-0.41;100.00;100263.06;5045074;28;20098;-75
2022/12/13 05:37:15;;;;;;;16.63;9.70;;;;;;;-0.42;100.00;100290.53;5043666;28;20052;-78
2022/12/13 05:39:40;;;;;;;11.73;8.20;;;;;;;-0.42;100.00;100308.56;5046065;28;20044;-76
2022/12/13 05:42:08;;;;;;;13.30;8.13;;;;;;;-0.93;100.00;100182.75;5045777;28;20402;-76
2022/12/13 05:44:33;;;;;;;12.55;6.60;;;;;;;-0.97;100.00;100172.25;5047921;28;20141;-75
2022/12/13 05:47:00;;;;;;;13.93;8.35;;;;;;;-0.93;100.00;100187.03;5043258;28;20660;-78
2022/12/13 05:49:25;;;;;;;14.93;6.63;;;;;;;-0.37;100.00;100283.84;5043870;28;20049;-74
2022/12/13 05:51:51;;;;;;;11.70;7.72;;;;;;;-0.13;100.00;100334.69;5043524;28;20722;-77
2022/12/13 05:54:16;;;;;;;11.85;6.97;;;;;;;-0.81;100.00;100208.16;5046904;28;20116;-75
2022/12/13 05:56:42;;;;;;;16.30;8.65;;;;;;;-0.34;100.00;100280.53;5045596;28;20152;-76
2022/12/13 05:59:08;;;;;;;17.20;9.30;;;;;;;0.00;100.00;100347.28;5023887;28;20049;-76
2022/12/13 06:01:33;;;;;;;20.05;9.63;;;;;;;-0.31;100.00;100312.44;5028909;28;20543;-76
2022/12/13 06:03:58;;;;;;;14.55;8.70;;;;;;;-0.07;100.00;100352.97;5045970;28;20080;-76
2022/12/13 06:06:24;;;;;;;13.55;8.18;;;;;;;0.02;100.00;100348.19;5041435;28;20595;-74
2022/12/13 06:08:50;;;;;;;16.10;8.07;;;;;;;0.02;100.00;100362.78;5048922;28;20139;-76
2022/12/13 06:11:16;;;;;;;18.25;9.38;;;;;;;-1.01;100.00;100196.97;5041497;28;20652;-75
2022/12/13 06:13:43;;;;;;;15.77;7.85;;;;;;;-0.56;100.00;100253.88;5034495;28;20093;-75
2022/12/13 06:16:10;;;;;;;14.88;7.80;;;;;;;0.08;100.00;100361.34;5035724;28;20069;-76
2022/12/13 06:18:36;;;;;;;15.70;9.30;;;;;;;-0.20;100.00;100345.56;5033038;28;20110;-72
2022/12/13 06:21:05;;;;;;;15.07;8.18;;;;;;;-0.14;100.00;100344.13;5036066;28;20052;-73
2022/12/13 06:23:31;;;;;;;11.55;7.28;;;;;;;0.02;100.00;100360.22;5034045;28;20106;-73
2022/12/13 06:25:57;;;;;;;14.75;8.05;;;;;;;0.12;100.00;100381.31;5039292;28;20052;-72
2022/12/13 06:28:23;;;;;;;17.92;11.00;;;;;;;-0.98;100.00;100186.84;5034379;28;20068;-73
2022/12/13 06:30:51;;;;;;;13.95;8.70;;;;;;;-0.54;100.00;100256.50;5042515;28;20079;-73
2022/12/13 06:33:18;;;;;;;14.57;9.35;;;;;;;-0.07;100.00;100333.25;5031183;28;20086;-73
2022/12/13 06:35:44;;;;;;;18.40;9.18;;;;;;;-0.39;100.00;100308.69;5044489;28;20083;-72
2022/12/13 06:38:10;;;;;;;16.23;8.57;;;;;;;-0.69;100.00;100262.75;5037356;28;20135;-72
2022/12/13 06:40:35;;;;;;;17.02;9.02;;;;;;;-0.44;100.00;100308.50;5047255;28;20704;-73
2022/12/13 06:43:01;;;;;;;20.95;10.82;;;;;;;-0.09;100.00;100409.66;5042861;28;20045;-73
2022/12/13 06:45:26;;;;;;;14.48;7.15;;;;;;;-0.64;100.00;100317.94;5042346;28;20101;-72
2022/12/13 06:47:52;;;;;;;18.92;8.98;;;;;;;-0.22;100.00;100397.91;5042096;28;20041;-72
2022/12/13 06:50:17;;;;;;;15.32;7.75;;;;;;;0.10;100.00;100424.22;5044208;28;20041;-73
2022/12/13 06:52:45;;;;;;;19.83;9.93;;;;;;;-0.68;100.00;100271.34;5045172;28;20041;-71
2022/12/13 06:55:10;;;;;;;15.70;8.77;;;;;;;0.10;100.00;100403.56;5046583;28;20049;-74
2022/12/13 06:57:36;;;;;;;19.55;9.38;;;;;;;0.19;100.00;100429.75;5038813;28;20039;-71
2022/12/13 07:00:03;;;;;;;27.35;11.32;;;;;;;0.09;100.00;100421.56;5047092;28;20071;-72
2022/12/13 07:02:29;;;;;;;13.00;8.95;;;;;;;-0.41;100.00;100379.03;5044771;28;20049;-73
2022/12/13 07:04:55;;;;;;;17.05;9.00;;;;;;;-0.76;100.00;100308.81;5044143;28;20068;-72
2022/12/13 07:07:21;;;;;;;15.75;9.38;;;;;;;-0.70;100.00;100314.25;5026974;28;20167;-73
2022/12/13 07:09:46;;;;;;;16.98;9.27;;;;;;;-0.75;100.00;100326.91;5047380;28;20057;-72
2022/12/13 07:12:12;;;;;;;17.98;9.15;;;;;;;-0.65;100.00;100274.09;5043805;28;20064;-72
2022/12/13 07:14:37;;;;;;;14.20;7.90;;;;;;;-0.35;100.00;100364.72;5042067;28;20106;-71
2022/12/13 07:17:03;;;;;;;20.58;9.75;;;;;;;-0.63;100.00;100280.19;5042393;28;20466;-71
2022/12/13 07:19:29;;;;;;;22.75;9.68;;;;;;;-0.10;100.00;100340.84;5043055;28;20548;-70
2022/12/13 07:21:55;;;;;;;22.90;10.43;;;;;;;-0.07;100.00;100325.50;5043018;28;20159;-69
2022/12/13 07:24:20;;;;;;;15.90;9.57;;;;;;;0.22;100.00;100340.41;5042837;28;20025;-70
2022/12/13 07:26:46;;;;;;;12.48;6.25;;;;;;;-0.12;100.00;100320.97;5046810;28;20028;-70
2022/12/13 07:29:11;;;;;;;18.77;8.95;;;;;;;0.09;100.00;100350.19;5044652;28;20099;-69
2022/12/13 07:31:37;;;;;;;17.75;9.35;;;;;;;0.72;100.00;100444.78;5041204;28;20049;-73
2022/12/13 07:36:37;;;;;;;15.80;9.73;;;;;;;0.08;100.00;100337.25;5318087;22;20077;-74
2022/12/13 07:39:03;;;;;;;16.65;8.98;;;;;;;0.74;100.00;100459.53;4992806;28;20116;-72
2022/12/13 07:41:28;;;;;;;21.08;9.35;;;;;;;0.77;100.00;100433.84;5000998;28;20123;-72
2022/12/13 07:43:54;;;;;;;19.55;9.85;;;;;;;0.16;100.00;100326.44;5003271;28;20068;-71
2022/12/13 07:46:20;;;;;;;17.20;9.73;;;;;;;0.58;100.00;100444.22;5011756;28;20069;-71
2022/12/13 07:48:45;;;;;;;74.75;12.85;;;;;;;0.34;100.00;100354.66;5014644;28;20183;-70
2022/12/13 07:51:11;;;;;;;20.90;12.00;;;;;;;0.31;100.00;100335.63;5006387;28;20087;-71
2022/12/13 07:53:38;;;;;;;25.73;11.88;;;;;;;0.64;100.00;100385.09;5004227;28;20038;-71
2022/12/13 07:56:06;;;;;;;29.63;12.77;;;;;;;0.34;100.00;100370.16;5002262;28;20041;-71
2022/12/13 07:58:32;;;;;;;20.98;10.30;;;;;;;0.45;100.00;100361.97;5003454;28;20180;-73
2022/12/13 08:01:00;;;;;;;22.17;8.32;;;;;;;0.76;100.00;100395.03;5000126;28;20116;-73
2022/12/13 08:03:28;;;;;;;19.65;11.63;;;;;;;0.66;100.00;100367.97;4998278;28;20109;-73
2022/12/13 08:06:02;;;;;;;21.83;10.75;;;;;;;1.33;100.00;100514.38;5003402;28;20034;-74
2022/12/13 08:08:30;;;;;;;21.92;12.90;;;;;;;1.58;100.00;100515.31;5002813;28;20053;-73
2022/12/13 08:11:07;;;;;;;23.50;11.13;;;;;;;0.57;100.00;100443.34;5000999;28;20382;-73
2022/12/13 08:13:33;;;;;;;21.75;11.98;;;;;;;0.81;100.00;100518.34;4994826;28;20053;-74
2022/12/13 08:16:00;;;;;;;13.68;10.13;;;;;;;0.14;100.00;100408.06;5004643;28;20052;-73
2022/12/13 08:18:27;;;;;;;16.70;9.15;;;;;;;0.63;100.00;100536.56;5003212;28;20056;-74
2022/12/13 08:21:00;;;;;;;24.05;11.00;;;;;;;0.09;100.00;100434.47;5005440;28;20045;-73
2022/12/13 08:23:26;;;;;;;17.08;10.45;;;;;;;0.88;100.00;100550.47;5003560;28;20164;-73
2022/12/13 08:25:53;;;;;;;15.90;8.13;;;;;;;0.98;100.00;100539.72;5003286;28;20049;-76
2022/12/13 08:28:21;;;;;;;19.50;8.70;;;;;;;0.21;100.00;100383.38;5000665;28;20517;-74
2022/12/13 08:30:47;;;;;;;23.33;9.98;;;;;;;0.44;100.00;100546.03;4998076;28;20069;-74
2022/12/13 08:33:13;;;;;;;13.77;8.57;;;;;;;0.11;100.00;100438.00;5004543;28;20034;-73
2022/12/13 08:35:39;;;;;;;17.67;9.60;;;;;;;0.38;100.00;100511.41;4994944;28;20048;-75
2022/12/13 08:38:06;;;;;;;22.42;10.95;;;;;;;0.27;100.00;100545.31;5001313;28;20420;-74
2022/12/13 08:40:32;;;;;;;18.35;10.88;;;;;;;0.24;100.00;100515.09;4996257;28;20494;-75
2022/12/13 08:42:57;;;;;;;21.55;9.20;;;;;;;0.74;100.00;100559.38;5002506;28;20096;-75
2022/12/13 08:45:23;;;;;;;16.17;9.63;;;;;;;0.48;100.00;100524.72;4999632;28;20066;-73
2022/12/13 08:47:48;;;;;;;15.00;8.30;;;;;;;0.11;100.00;100420.81;5002743;28;20049;-73
2022/12/13 08:50:15;;;;;;;20.27;9.85;;;;;;;0.64;100.00;100552.94;5000068;28;20073;-73
2022/12/13 08:52:41;;;;;;;17.50;10.57;;;;;;;0.49;100.00;100495.47;5000448;28;20080;-74
2022/12/13 08:55:12;;;;;;;14.48;8.98;;;;;;;-0.05;100.00;100432.19;5004635;28;20062;-75
2022/12/13 08:57:39;;;;;;;34.55;12.27;;;;;;;-0.10;100.00;100422.47;4999779;28;20091;-73
2022/12/13 09:00:07;;;;;;;17.70;10.35;;;;;;;0.91;100.00;100547.13;5002234;28;20424;-74
2022/12/13 09:02:32;;;;;;;15.25;9.23;;;;;;;1.03;100.00;100545.97;5004991;28;20053;-73
2022/12/13 09:04:58;;;;;;;19.48;12.40;;;;;;;0.71;100.00;100454.25;5002137;28;20054;-74
2022/12/13 09:07:23;;;;;;;14.90;7.88;;;;;;;0.75;100.00;100468.16;4999728;28;20054;-74
2022/12/13 09:09:49;;;;;;;24.65;12.07;;;;;;;0.45;100.00;100411.03;5007283;28;20046;-74
2022/12/13 09:12:14;;;;;;;21.73;10.32;;;;;;;0.52;100.00;100389.78;5006992;28;20044;-74
2022/12/13 09:14:40;;;;;;;15.73;8.50;;;;;;;1.42;100.00;100526.78;5007011;28;20112;-72
2022/12/13 09:17:05;;;;;;;20.73;11.18;;;;;;;1.25;100.00;100527.00;5007263;28;20176;-73
2022/12/13 09:19:31;;;;;;;16.17;8.20;;;;;;;1.65;100.00;100558.69;5009010;28;20057;-75
2022/12/13 09:21:57;;;;;;;17.67;8.90;;;;;;;1.77;100.00;100543.63;5000641;28;20062;-74
2022/12/13 09:24:22;;;;;;;23.58;11.63;;;;;;;0.76;100.00;100426.03;5003240;28;20034;-74
2022/12/13 09:26:48;;;;;;;15.25;9.90;;;;;;;1.23;100.00;100424.38;5006494;28;20037;-74
2022/12/13 09:29:15;;;;;;;14.05;8.57;;;;;;;2.11;100.00;100550.06;5007510;28;20034;-73
2022/12/13 09:31:41;;;;;;;17.48;9.48;;;;;;;2.21;100.00;100523.69;5005167;28;20046;-74
2022/12/13 09:34:07;;;;;;;16.35;9.30;;;;;;;1.68;100.00;100422.59;5004536;28;20153;-74
2022/12/13 09:36:33;;;;;;;19.65;11.48;;;;;;;1.84;100.00;100412.81;5005013;28;20088;-73
2022/12/13 09:38:58;;;;;;;17.42;10.07;;;;;;;1.65;100.00;100406.97;5005259;28;20061;-73
2022/12/13 09:41:34;;;;;;;14.93;9.50;;;;;;;1.75;100.00;100404.72;5003498;28;20499;-73
2022/12/13 09:44:27;;;;;;;16.63;10.52;;;;;;;2.67;100.00;100520.09;4998937;28;20077;-74
2022/12/13 09:46:56;;;;;;;14.32;6.68;;;;;;;2.82;100.00;100529.19;5004424;28;20054;-73
2022/12/13 09:49:43;;;;;;;18.15;9.38;;;;;;;2.56;100.00;100520.56;5000679;28;20092;-74
2022/12/13 09:52:15;;;;;;;24.02;8.43;;;;;;;1.64;100.00;100412.13;4999518;28;20054;-73
2022/12/13 09:54:41;;;;;;;13.13;7.07;;;;;;;2.17;100.00;100508.84;5004343;28;20057;-73
2022/12/13 09:57:33;;;;;;;12.48;8.65;;;;;;;2.19;100.00;100493.38;5003383;28;20093;-73
2022/12/13 10:00:12;;;;;;;15.68;9.45;;;;;;;2.26;100.00;100482.41;4998435;28;20058;-73
2022/12/13 10:02:50;;;;;;;24.67;9.27;;;;;;;1.85;100.00;100381.84;4997963;28;20057;-70
2022/12/13 10:05:31;;;;;;;18.10;9.13;;;;;;;2.28;100.00;100496.31;5004310;28;20132;-73
2022/12/13 10:07:59;;;;;;;18.65;9.25;;;;;;;1.84;100.00;100420.56;4999986;28;20056;-72
2022/12/13 10:10:25;;;;;;;20.42;9.80;;;;;;;2.37;100.00;100493.16;4997664;28;20046;-75
2022/12/13 10:13:02;;;;;;;22.65;8.35;;;;;;;2.28;100.00;100473.88;5006136;28;20050;-74
2022/12/13 10:15:31;;;;;;;13.73;8.15;;;;;;;2.45;100.00;100448.53;5005828;28;20137;-73
2022/12/13 10:18:00;;;;;;;16.42;7.53;;;;;;;2.74;100.00;100490.97;5000578;28;20042;-74
2022/12/13 10:20:27;;;;;;;20.63;8.07;;;;;;;2.50;100.00;100466.81;4998344;28;20045;-74
2022/12/13 10:22:53;;;;;;;21.95;9.65;;;;;;;1.75;100.00;100306.44;5000872;28;20072;-74
2022/12/13 10:25:49;;;;;;;20.42;9.55;;;;;;;2.92;100.00;100471.63;4998553;28;21318;-74
2022/12/13 10:28:17;;;;;;;15.73;7.07;;;;;;;2.28;100.00;100341.84;5002501;28;20056;-75
2022/12/13 10:30:44;;;;;;;16.00;7.40;;;;;;;2.80;100.00;100450.53;5004086;28;20050;-74
2022/12/13 10:33:25;;;;;;;12.18;6.55;;;;;;;2.70;100.00;100437.28;5006319;28;20413;-74
2022/12/13 10:36:02;;;;;;;15.65;7.47;;;;;;;2.62;100.00;100422.31;5004013;28;20042;-74
2022/12/13 10:38:30;;;;;;;10.70;5.65;;;;;;;3.44;100.00;100462.00;5006531;28;20041;-74
2022/12/13 10:41:40;;;;;;;12.80;5.68;;;;;;;3.61;100.00;100426.19;5003585;28;20134;-74
2022/12/13 10:44:25;;;;;;;12.32;7.13;;;;;;;4.51;100.00;100464.06;5003631;28;20046;-73
2022/12/13 10:47:03;;;;;;;33.22;8.18;;;;;;;4.06;100.00;100371.16;5010409;28;20058;-72
2022/12/13 10:49:56;;;;;;;16.23;8.32;;;;;;;3.44;100.00;100452.50;5004131;28;20057;-72
2022/12/13 10:52:31;;;;;;;11.57;6.88;;;;;;;3.92;100.00;100454.72;5001805;28;20034;-71
2022/12/13 10:55:03;;;;;;;17.27;7.80;;;;;;;4.11;100.00;100445.72;5001356;28;20493;-72
2022/12/13 10:57:29;;;;;;;15.60;7.50;;;;;;;4.06;100.00;100449.03;5005297;28;20052;-71
2022/12/13 10:59:55;;;;;;;12.52;7.32;;;;;;;4.04;100.00;100451.59;4998253;28;20042;-71
2022/12/13 11:02:36;;;;;;;13.65;9.05;;;;;;;4.09;100.00;100447.38;4998848;28;20560;-73
2022/12/13 11:05:27;;;;;;;11.25;7.05;;;;;;;3.03;100.00;100327.72;4994207;28;20050;-73
2022/12/13 11:07:56;;;;;;;13.05;7.85;;;;;;;4.03;100.00;100418.69;4996824;28;20084;-71
2022/12/13 11:10:27;;;;;;;14.10;9.02;;;;;;;3.68;100.00;100316.53;4997218;28;20444;-73
2022/12/13 11:13:04;;;;;;;14.20;8.70;;;;;;;3.49;100.00;100295.28;5004249;28;20053;-72
2022/12/13 11:15:33;;;;;;;13.23;9.13;;;;;;;4.25;100.00;100396.72;5003566;28;20034;-72
2022/12/13 11:18:05;;;;;;;14.48;8.32;;;;;;;3.78;100.00;100310.75;5002654;28;20925;-71
2022/12/13 11:20:36;;;;;;;19.13;10.93;;;;;;;4.50;100.00;100419.00;5000765;28;20097;-71
2022/12/13 11:23:21;;;;;;;18.85;10.50;;;;;;;4.72;100.00;100428.19;5004669;28;20082;-71
2022/12/13 11:25:47;;;;;;;13.93;8.77;;;;;;;4.54;100.00;100420.84;5003398;28;20096;-71
2022/12/13 11:28:13;;;;;;;20.52;9.80;;;;;;;4.50;100.00;100431.13;4998109;28;20462;-73
2022/12/13 11:30:57;;;;;;;15.43;8.77;;;;;;;7.84;100.00;100412.81;5004760;28;20056;-73
2022/12/13 11:33:31;;;;;;;14.23;9.48;;;;;;;5.05;100.00;100416.81;5000752;28;20030;-73